sensor_id;sensor_type;location;lat;lon;timestamp;P1;durP1;ratioP1;P2;durP2;ratioP2
17189;SDS011;8710;49.880;8.272;2022-08-27T00:02:13;10.40;;;7.13;;
17189;SDS011;8710;49.880;8.272;2022-08-27T00:04:41;9.48;;;7.35;;
17189;SDS011;8710;49.880;8.272;2022-08-27T00:07:08;11.80;;;7.45;;
17189;SDS011;8710;49.880;8.272;2022-08-27T00:09:36;11.70;;;8.30;;
17189;SDS011;8710;49.880;8.272;2022-08-27T00:12:03;11.63;;;7.47;;
17189;SDS011;8710;49.880;8.272;2022-08-27T00:14:31;11.75;;;7.43;;
17189;SDS011;8710;49.880;8.272;2022-08-27T00:16:58;10.43;;;7.20;;
17189;SDS011;8710;49.880;8.272;2022-08-27T00:19:25;8.35;;;7.30;;
17189;SDS011;8710;49.880;8.272;2022-08-27T00:21:53;9.65;;;7.78;;
17189;SDS011;8710;49.880;8.272;2022-08-27T00:24:20;10.27;;;7.60;;
17189;SDS011;8710;49.880;8.272;2022-08-27T00:26:48;10.40;;;7.30;;
17189;SDS011;8710;49.880;8.272;2022-08-27T00:29:17;10.50;;;7.43;;
17189;SDS011;8710;49.880;8.272;2022-08-27T00:31:45;10.73;;;7.82;;
17189;SDS011;8710;49.880;8.272;2022-08-27T00:34:11;13.77;;;8.35;;
17189;SDS011;8710;49.880;8.272;2022-08-27T00:36:39;9.20;;;6.97;;
17189;SDS011;8710;49.880;8.272;2022-08-27T00:39:07;12.45;;;8.05;;
17189;SDS011;8710;49.880;8.272;2022-08-27T00:41:34;8.90;;;7.30;;
17189;SDS011;8710;49.880;8.272;2022-08-27T00:44:02;11.07;;;7.88;;
17189;SDS011;8710;49.880;8.272;2022-08-27T00:46:31;14.25;;;7.60;;
17189;SDS011;8710;49.880;8.272;2022-08-27T00:49:04;12.77;;;7.05;;
17189;SDS011;8710;49.880;8.272;2022-08-27T00:51:32;8.82;;;7.53;;
17189;SDS011;8710;49.880;8.272;2022-08-27T00:54:02;11.80;;;7.70;;
17189;SDS011;8710;49.880;8.272;2022-08-27T00:56:32;10.35;;;7.95;;
17189;SDS011;8710;49.880;8.272;2022-08-27T00:59:03;10.90;;;7.88;;
17189;SDS011;8710;49.880;8.272;2022-08-27T01:01:31;10.50;;;7.82;;
17189;SDS011;8710;49.880;8.272;2022-08-27T01:04:19;10.10;;;7.90;;
17189;SDS011;8710;49.880;8.272;2022-08-27T01:06:47;12.27;;;8.35;;
17189;SDS011;8710;49.880;8.272;2022-08-27T01:09:14;11.45;;;7.60;;
17189;SDS011;8710;49.880;8.272;2022-08-27T01:11:43;12.48;;;7.90;;
17189;SDS011;8710;49.880;8.272;2022-08-27T01:14:12;11.40;;;7.60;;
17189;SDS011;8710;49.880;8.272;2022-08-27T01:16:41;10.05;;;7.18;;
17189;SDS011;8710;49.880;8.272;2022-08-27T01:19:13;11.88;;;7.53;;
17189;SDS011;8710;49.880;8.272;2022-08-27T01:21:44;11.15;;;8.07;;
17189;SDS011;8710;49.880;8.272;2022-08-27T01:24:24;10.80;;;7.90;;
17189;SDS011;8710;49.880;8.272;2022-08-27T01:26:55;11.55;;;7.78;;
17189;SDS011;8710;49.880;8.272;2022-08-27T01:29:23;10.57;;;7.70;;
17189;SDS011;8710;49.880;8.272;2022-08-27T01:31:50;11.52;;;7.78;;
17189;SDS011;8710;49.880;8.272;2022-08-27T01:34:18;8.65;;;7.68;;
17189;SDS011;8710;49.880;8.272;2022-08-27T01:36:45;11.40;;;7.47;;
17189;SDS011;8710;49.880;8.272;2022-08-27T01:39:12;11.25;;;8.82;;
17189;SDS011;8710;49.880;8.272;2022-08-27T01:41:40;18.03;;;8.77;;
17189;SDS011;8710;49.880;8.272;2022-08-27T01:44:07;9.97;;;8.00;;
17189;SDS011;8710;49.880;8.272;2022-08-27T01:46:34;11.68;;;7.80;;
17189;SDS011;8710;49.880;8.272;2022-08-27T01:49:01;12.90;;;8.60;;
17189;SDS011;8710;49.880;8.272;2022-08-27T01:51:28;15.18;;;8.45;;
17189;SDS011;8710;49.880;8.272;2022-08-27T01:53:55;11.85;;;8.80;;
17189;SDS011;8710;49.880;8.272;2022-08-27T01:56:23;12.85;;;8.07;;
17189;SDS011;8710;49.880;8.272;2022-08-27T01:58:51;10.33;;;8.33;;
17189;SDS011;8710;49.880;8.272;2022-08-27T02:01:18;9.87;;;7.93;;
17189;SDS011;8710;49.880;8.272;2022-08-27T02:03:45;9.02;;;7.70;;
17189;SDS011;8710;49.880;8.272;2022-08-27T02:06:13;8.80;;;7.63;;
17189;SDS011;8710;49.880;8.272;2022-08-27T02:08:40;11.37;;;8.13;;
17189;SDS011;8710;49.880;8.272;2022-08-27T02:11:07;14.33;;;8.87;;
17189;SDS011;8710;49.880;8.272;2022-08-27T02:13:34;12.70;;;8.70;;
17189;SDS011;8710;49.880;8.272;2022-08-27T02:16:03;11.33;;;8.20;;
17189;SDS011;8710;49.880;8.272;2022-08-27T02:18:30;10.77;;;7.83;;
17189;SDS011;8710;49.880;8.272;2022-08-27T02:20:57;10.32;;;8.10;;
17189;SDS011;8710;49.880;8.272;2022-08-27T02:23:24;11.53;;;7.30;;
17189;SDS011;8710;49.880;8.272;2022-08-27T02:25:51;9.93;;;7.53;;
17189;SDS011;8710;49.880;8.272;2022-08-27T02:28:18;10.73;;;7.97;;
17189;SDS011;8710;49.880;8.272;2022-08-27T02:30:45;11.23;;;7.93;;
17189;SDS011;8710;49.880;8.272;2022-08-27T02:33:14;11.13;;;8.03;;
17189;SDS011;8710;49.880;8.272;2022-08-27T02:35:41;11.80;;;8.07;;
17189;SDS011;8710;49.880;8.272;2022-08-27T02:38:08;8.70;;;7.35;;
17189;SDS011;8710;49.880;8.272;2022-08-27T02:40:36;12.07;;;8.10;;
17189;SDS011;8710;49.880;8.272;2022-08-27T02:43:04;11.23;;;7.90;;
17189;SDS011;8710;49.880;8.272;2022-08-27T02:45:31;10.63;;;8.13;;
17189;SDS011;8710;49.880;8.272;2022-08-27T02:47:58;11.20;;;8.50;;
17189;SDS011;8710;49.880;8.272;2022-08-27T02:50:27;10.27;;;8.00;;
17189;SDS011;8710;49.880;8.272;2022-08-27T02:52:54;11.80;;;8.40;;
17189;SDS011;8710;49.880;8.272;2022-08-27T02:55:21;9.90;;;8.60;;
17189;SDS011;8710;49.880;8.272;2022-08-27T02:57:48;11.20;;;8.50;;
17189;SDS011;8710;49.880;8.272;2022-08-27T03:00:16;9.93;;;8.60;;
17189;SDS011;8710;49.880;8.272;2022-08-27T03:02:45;11.53;;;9.27;;
17189;SDS011;8710;49.880;8.272;2022-08-27T03:05:12;12.10;;;8.60;;
17189;SDS011;8710;49.880;8.272;2022-08-27T03:07:41;11.77;;;8.30;;
17189;SDS011;8710;49.880;8.272;2022-08-27T03:10:09;10.63;;;8.90;;
17189;SDS011;8710;49.880;8.272;2022-08-27T03:12:37;10.77;;;8.47;;
17189;SDS011;8710;49.880;8.272;2022-08-27T03:15:05;9.93;;;8.87;;
17189;SDS011;8710;49.880;8.272;2022-08-27T03:17:33;11.27;;;8.40;;
17189;SDS011;8710;49.880;8.272;2022-08-27T03:20:29;13.97;;;9.10;;
17189;SDS011;8710;49.880;8.272;2022-08-27T03:22:58;12.23;;;9.40;;
17189;SDS011;8710;49.880;8.272;2022-08-27T03:25:26;11.17;;;8.90;;
17189;SDS011;8710;49.880;8.272;2022-08-27T03:27:53;11.70;;;9.00;;
17189;SDS011;8710;49.880;8.272;2022-08-27T03:30:21;10.80;;;8.60;;
17189;SDS011;8710;49.880;8.272;2022-08-27T03:32:48;13.97;;;9.50;;
17189;SDS011;8710;49.880;8.272;2022-08-27T03:35:16;10.53;;;8.97;;
17189;SDS011;8710;49.880;8.272;2022-08-27T03:37:44;13.87;;;8.87;;
17189;SDS011;8710;49.880;8.272;2022-08-27T03:40:13;11.93;;;9.77;;
17189;SDS011;8710;49.880;8.272;2022-08-27T03:42:41;10.37;;;8.93;;
17189;SDS011;8710;49.880;8.272;2022-08-27T03:45:08;14.13;;;10.03;;
17189;SDS011;8710;49.880;8.272;2022-08-27T03:47:36;12.80;;;10.30;;
17189;SDS011;8710;49.880;8.272;2022-08-27T03:50:04;15.80;;;9.83;;
17189;SDS011;8710;49.880;8.272;2022-08-27T03:52:32;12.03;;;9.43;;
17189;SDS011;8710;49.880;8.272;2022-08-27T03:54:59;13.87;;;10.00;;
17189;SDS011;8710;49.880;8.272;2022-08-27T03:57:30;13.77;;;9.77;;
17189;SDS011;8710;49.880;8.272;2022-08-27T03:59:57;11.77;;;9.30;;
17189;SDS011;8710;49.880;8.272;2022-08-27T04:02:25;13.57;;;10.33;;
17189;SDS011;8710;49.880;8.272;2022-08-27T04:04:52;13.63;;;10.20;;
17189;SDS011;8710;49.880;8.272;2022-08-27T04:07:21;13.23;;;9.30;;
17189;SDS011;8710;49.880;8.272;2022-08-27T04:09:48;13.03;;;10.63;;
17189;SDS011;8710;49.880;8.272;2022-08-27T04:12:16;11.30;;;10.00;;
17189;SDS011;8710;49.880;8.272;2022-08-27T04:14:44;14.67;;;10.23;;
17189;SDS011;8710;49.880;8.272;2022-08-27T04:17:11;12.67;;;10.50;;
17189;SDS011;8710;49.880;8.272;2022-08-27T04:19:38;12.63;;;10.63;;
17189;SDS011;8710;49.880;8.272;2022-08-27T04:22:05;12.53;;;10.03;;
17189;SDS011;8710;49.880;8.272;2022-08-27T04:24:33;12.50;;;10.23;;
17189;SDS011;8710;49.880;8.272;2022-08-27T04:27:01;11.83;;;10.13;;
17189;SDS011;8710;49.880;8.272;2022-08-27T04:29:29;14.47;;;10.10;;
17189;SDS011;8710;49.880;8.272;2022-08-27T04:31:58;15.30;;;10.67;;
17189;SDS011;8710;49.880;8.272;2022-08-27T04:34:25;11.90;;;9.93;;
17189;SDS011;8710;49.880;8.272;2022-08-27T04:36:53;14.10;;;9.93;;
17189;SDS011;8710;49.880;8.272;2022-08-27T04:39:21;11.00;;;9.80;;
17189;SDS011;8710;49.880;8.272;2022-08-27T04:41:50;12.13;;;9.40;;
17189;SDS011;8710;49.880;8.272;2022-08-27T04:44:17;12.67;;;10.07;;
17189;SDS011;8710;49.880;8.272;2022-08-27T04:46:44;11.57;;;9.77;;
17189;SDS011;8710;49.880;8.272;2022-08-27T04:49:14;12.57;;;10.30;;
17189;SDS011;8710;49.880;8.272;2022-08-27T04:51:41;12.10;;;9.30;;
17189;SDS011;8710;49.880;8.272;2022-08-27T04:54:08;12.97;;;10.20;;
17189;SDS011;8710;49.880;8.272;2022-08-27T04:56:36;13.93;;;9.90;;
17189;SDS011;8710;49.880;8.272;2022-08-27T04:59:04;13.13;;;10.03;;
17189;SDS011;8710;49.880;8.272;2022-08-27T05:01:32;13.70;;;10.00;;
17189;SDS011;8710;49.880;8.272;2022-08-27T05:03:59;15.07;;;10.50;;
17189;SDS011;8710;49.880;8.272;2022-08-27T05:06:28;14.20;;;9.70;;
17189;SDS011;8710;49.880;8.272;2022-08-27T05:08:55;12.63;;;10.50;;
17189;SDS011;8710;49.880;8.272;2022-08-27T05:11:23;11.80;;;9.93;;
17189;SDS011;8710;49.880;8.272;2022-08-27T05:13:51;13.80;;;9.77;;
17189;SDS011;8710;49.880;8.272;2022-08-27T05:16:19;12.67;;;9.93;;
17189;SDS011;8710;49.880;8.272;2022-08-27T05:18:47;12.27;;;9.63;;
17189;SDS011;8710;49.880;8.272;2022-08-27T05:21:15;12.87;;;10.13;;
17189;SDS011;8710;49.880;8.272;2022-08-27T05:23:44;12.00;;;10.37;;
17189;SDS011;8710;49.880;8.272;2022-08-27T05:26:12;11.77;;;10.30;;
17189;SDS011;8710;49.880;8.272;2022-08-27T05:28:39;12.73;;;9.33;;
17189;SDS011;8710;49.880;8.272;2022-08-27T05:31:09;12.80;;;9.80;;
17189;SDS011;8710;49.880;8.272;2022-08-27T05:33:37;12.67;;;9.93;;
17189;SDS011;8710;49.880;8.272;2022-08-27T05:36:05;12.73;;;9.63;;
17189;SDS011;8710;49.880;8.272;2022-08-27T05:38:33;11.00;;;9.63;;
17189;SDS011;8710;49.880;8.272;2022-08-27T05:41:03;14.03;;;9.50;;
17189;SDS011;8710;49.880;8.272;2022-08-27T05:43:33;13.38;;;10.55;;
17189;SDS011;8710;49.880;8.272;2022-08-27T05:46:02;12.33;;;9.13;;
17189;SDS011;8710;49.880;8.272;2022-08-27T05:48:30;12.30;;;10.27;;
17189;SDS011;8710;49.880;8.272;2022-08-27T05:51:05;13.52;;;9.93;;
17189;SDS011;8710;49.880;8.272;2022-08-27T05:53:32;12.90;;;9.43;;
17189;SDS011;8710;49.880;8.272;2022-08-27T05:55:59;13.85;;;9.10;;
17189;SDS011;8710;49.880;8.272;2022-08-27T05:58:28;12.15;;;9.30;;
17189;SDS011;8710;49.880;8.272;2022-08-27T06:01:12;11.82;;;8.77;;
17189;SDS011;8710;49.880;8.272;2022-08-27T06:03:40;13.43;;;8.97;;
17189;SDS011;8710;49.880;8.272;2022-08-27T06:06:09;11.40;;;9.57;;
17189;SDS011;8710;49.880;8.272;2022-08-27T06:08:37;11.98;;;9.57;;
17189;SDS011;8710;49.880;8.272;2022-08-27T06:11:05;12.77;;;10.02;;
17189;SDS011;8710;49.880;8.272;2022-08-27T06:13:34;11.50;;;9.30;;
17189;SDS011;8710;49.880;8.272;2022-08-27T06:16:02;12.80;;;9.52;;
17189;SDS011;8710;49.880;8.272;2022-08-27T06:18:30;12.23;;;9.40;;
17189;SDS011;8710;49.880;8.272;2022-08-27T06:20:57;13.85;;;9.05;;
17189;SDS011;8710;49.880;8.272;2022-08-27T06:23:25;11.20;;;8.40;;
17189;SDS011;8710;49.880;8.272;2022-08-27T06:25:52;10.32;;;8.35;;
17189;SDS011;8710;49.880;8.272;2022-08-27T06:28:19;11.63;;;9.13;;
17189;SDS011;8710;49.880;8.272;2022-08-27T06:30:48;12.48;;;8.40;;
17189;SDS011;8710;49.880;8.272;2022-08-27T06:33:15;13.95;;;8.48;;
17189;SDS011;8710;49.880;8.272;2022-08-27T06:35:45;10.43;;;8.13;;
17189;SDS011;8710;49.880;8.272;2022-08-27T06:38:12;9.43;;;8.18;;
17189;SDS011;8710;49.880;8.272;2022-08-27T06:40:39;10.30;;;9.00;;
17189;SDS011;8710;49.880;8.272;2022-08-27T06:43:06;9.38;;;7.97;;
17189;SDS011;8710;49.880;8.272;2022-08-27T06:45:36;11.65;;;8.07;;
17189;SDS011;8710;49.880;8.272;2022-08-27T06:48:05;8.85;;;7.60;;
17189;SDS011;8710;49.880;8.272;2022-08-27T06:50:35;12.40;;;8.48;;
17189;SDS011;8710;49.880;8.272;2022-08-27T06:53:03;11.80;;;8.45;;
17189;SDS011;8710;49.880;8.272;2022-08-27T06:55:30;12.37;;;8.60;;
17189;SDS011;8710;49.880;8.272;2022-08-27T06:57:57;13.77;;;7.95;;
17189;SDS011;8710;49.880;8.272;2022-08-27T07:00:24;12.07;;;7.47;;
17189;SDS011;8710;49.880;8.272;2022-08-27T07:02:51;10.75;;;7.93;;
17189;SDS011;8710;49.880;8.272;2022-08-27T07:05:20;12.68;;;8.52;;
17189;SDS011;8710;49.880;8.272;2022-08-27T07:07:47;11.77;;;8.20;;
17189;SDS011;8710;49.880;8.272;2022-08-27T07:10:14;11.40;;;7.40;;
17189;SDS011;8710;49.880;8.272;2022-08-27T07:12:41;10.87;;;7.90;;
17189;SDS011;8710;49.880;8.272;2022-08-27T07:15:09;11.13;;;8.20;;
17189;SDS011;8710;49.880;8.272;2022-08-27T07:17:36;10.27;;;7.83;;
17189;SDS011;8710;49.880;8.272;2022-08-27T07:20:05;14.07;;;8.27;;
17189;SDS011;8710;49.880;8.272;2022-08-27T07:22:34;12.77;;;8.20;;
17189;SDS011;8710;49.880;8.272;2022-08-27T07:25:01;14.50;;;7.70;;
17189;SDS011;8710;49.880;8.272;2022-08-27T07:27:29;9.07;;;7.73;;
17189;SDS011;8710;49.880;8.272;2022-08-27T07:29:56;10.77;;;7.60;;
17189;SDS011;8710;49.880;8.272;2022-08-27T07:32:24;11.40;;;7.60;;
17189;SDS011;8710;49.880;8.272;2022-08-27T07:34:51;11.67;;;8.00;;
17189;SDS011;8710;49.880;8.272;2022-08-27T07:37:18;9.90;;;7.97;;
17189;SDS011;8710;49.880;8.272;2022-08-27T07:39:47;9.37;;;7.33;;
17189;SDS011;8710;49.880;8.272;2022-08-27T07:42:14;8.10;;;7.15;;
17189;SDS011;8710;49.880;8.272;2022-08-27T07:44:58;11.07;;;7.35;;
17189;SDS011;8710;49.880;8.272;2022-08-27T07:47:25;10.55;;;7.80;;
17189;SDS011;8710;49.880;8.272;2022-08-27T07:49:52;9.40;;;6.87;;
17189;SDS011;8710;49.880;8.272;2022-08-27T07:52:19;8.50;;;6.97;;
17189;SDS011;8710;49.880;8.272;2022-08-27T07:54:48;10.93;;;7.23;;
17189;SDS011;8710;49.880;8.272;2022-08-27T07:57:15;11.30;;;7.88;;
17189;SDS011;8710;49.880;8.272;2022-08-27T07:59:43;10.40;;;6.80;;
17189;SDS011;8710;49.880;8.272;2022-08-27T08:02:09;10.17;;;7.00;;
17189;SDS011;8710;49.880;8.272;2022-08-27T08:04:37;10.88;;;7.35;;
17189;SDS011;8710;49.880;8.272;2022-08-27T08:07:04;9.52;;;6.55;;
17189;SDS011;8710;49.880;8.272;2022-08-27T08:09:31;9.02;;;7.20;;
17189;SDS011;8710;49.880;8.272;2022-08-27T08:12:00;11.93;;;6.93;;
17189;SDS011;8710;49.880;8.272;2022-08-27T08:14:27;8.40;;;7.05;;
17189;SDS011;8710;49.880;8.272;2022-08-27T08:16:57;10.70;;;6.72;;
17189;SDS011;8710;49.880;8.272;2022-08-27T08:19:24;11.10;;;6.78;;
17189;SDS011;8710;49.880;8.272;2022-08-27T08:21:51;11.63;;;6.72;;
17189;SDS011;8710;49.880;8.272;2022-08-27T08:24:18;10.43;;;6.68;;
17189;SDS011;8710;49.880;8.272;2022-08-27T08:26:46;9.00;;;7.10;;
17189;SDS011;8710;49.880;8.272;2022-08-27T08:29:14;8.23;;;6.45;;
17189;SDS011;8710;49.880;8.272;2022-08-27T08:31:42;9.90;;;7.00;;
17189;SDS011;8710;49.880;8.272;2022-08-27T08:34:09;7.60;;;6.10;;
17189;SDS011;8710;49.880;8.272;2022-08-27T08:36:36;8.88;;;6.18;;
17189;SDS011;8710;49.880;8.272;2022-08-27T08:39:03;10.40;;;6.32;;
17189;SDS011;8710;49.880;8.272;2022-08-27T08:41:37;10.82;;;6.90;;
17189;SDS011;8710;49.880;8.272;2022-08-27T08:44:10;9.27;;;6.38;;
17189;SDS011;8710;49.880;8.272;2022-08-27T08:46:47;9.00;;;6.35;;
17189;SDS011;8710;49.880;8.272;2022-08-27T08:49:17;11.13;;;7.30;;
17189;SDS011;8710;49.880;8.272;2022-08-27T08:51:53;9.05;;;6.32;;
17189;SDS011;8710;49.880;8.272;2022-08-27T08:54:26;12.63;;;6.90;;
17189;SDS011;8710;49.880;8.272;2022-08-27T08:56:58;8.57;;;6.03;;
17189;SDS011;8710;49.880;8.272;2022-08-27T08:59:32;8.73;;;6.50;;
17189;SDS011;8710;49.880;8.272;2022-08-27T09:02:00;9.63;;;6.20;;
17189;SDS011;8710;49.880;8.272;2022-08-27T09:04:27;11.88;;;6.78;;
17189;SDS011;8710;49.880;8.272;2022-08-27T09:06:56;9.68;;;6.20;;
17189;SDS011;8710;49.880;8.272;2022-08-27T09:09:30;9.65;;;6.38;;
17189;SDS011;8710;49.880;8.272;2022-08-27T09:12:02;9.68;;;6.25;;
17189;SDS011;8710;49.880;8.272;2022-08-27T09:14:41;12.63;;;6.88;;
17189;SDS011;8710;49.880;8.272;2022-08-27T09:17:12;8.57;;;6.90;;
17189;SDS011;8710;49.880;8.272;2022-08-27T09:19:40;11.13;;;6.35;;
17189;SDS011;8710;49.880;8.272;2022-08-27T09:22:09;8.20;;;5.88;;
17189;SDS011;8710;49.880;8.272;2022-08-27T09:24:49;9.32;;;5.78;;
17189;SDS011;8710;49.880;8.272;2022-08-27T09:27:20;6.43;;;5.47;;
17189;SDS011;8710;49.880;8.272;2022-08-27T09:29:51;7.47;;;5.70;;
17189;SDS011;8710;49.880;8.272;2022-08-27T09:32:21;6.78;;;5.55;;
17189;SDS011;8710;49.880;8.272;2022-08-27T09:34:49;7.47;;;5.78;;
17189;SDS011;8710;49.880;8.272;2022-08-27T09:37:17;5.93;;;5.32;;
17189;SDS011;8710;49.880;8.272;2022-08-27T09:39:48;7.00;;;5.65;;
17189;SDS011;8710;49.880;8.272;2022-08-27T09:42:25;8.10;;;4.82;;
17189;SDS011;8710;49.880;8.272;2022-08-27T09:44:57;7.10;;;4.90;;
17189;SDS011;8710;49.880;8.272;2022-08-27T09:47:25;8.38;;;5.18;;
17189;SDS011;8710;49.880;8.272;2022-08-27T09:49:59;6.60;;;5.88;;
17189;SDS011;8710;49.880;8.272;2022-08-27T09:52:29;8.60;;;5.50;;
17189;SDS011;8710;49.880;8.272;2022-08-27T09:54:57;5.70;;;5.20;;
17189;SDS011;8710;49.880;8.272;2022-08-27T09:57:28;7.57;;;5.80;;
17189;SDS011;8710;49.880;8.272;2022-08-27T10:00:00;5.88;;;5.05;;
17189;SDS011;8710;49.880;8.272;2022-08-27T10:02:28;6.72;;;5.22;;
17189;SDS011;8710;49.880;8.272;2022-08-27T10:04:56;5.85;;;4.80;;
17189;SDS011;8710;49.880;8.272;2022-08-27T10:07:26;6.32;;;5.18;;
17189;SDS011;8710;49.880;8.272;2022-08-27T10:10:04;7.68;;;4.35;;
17189;SDS011;8710;49.880;8.272;2022-08-27T10:12:39;6.85;;;5.35;;
17189;SDS011;8710;49.880;8.272;2022-08-27T10:15:09;8.80;;;5.93;;
17189;SDS011;8710;49.880;8.272;2022-08-27T10:17:41;6.95;;;5.57;;
17189;SDS011;8710;49.880;8.272;2022-08-27T10:20:16;13.70;;;6.50;;
17189;SDS011;8710;49.880;8.272;2022-08-27T10:22:52;5.97;;;5.38;;
17189;SDS011;8710;49.880;8.272;2022-08-27T10:25:29;4.95;;;4.45;;
17189;SDS011;8710;49.880;8.272;2022-08-27T10:28:05;5.88;;;4.70;;
17189;SDS011;8710;49.880;8.272;2022-08-27T10:30:52;5.28;;;4.63;;
17189;SDS011;8710;49.880;8.272;2022-08-27T10:33:33;4.93;;;4.43;;
17189;SDS011;8710;49.880;8.272;2022-08-27T10:36:06;6.32;;;4.88;;
17189;SDS011;8710;49.880;8.272;2022-08-27T10:38:36;5.35;;;4.82;;
17189;SDS011;8710;49.880;8.272;2022-08-27T10:41:08;5.57;;;5.05;;
17189;SDS011;8710;49.880;8.272;2022-08-27T10:43:43;5.93;;;5.32;;
17189;SDS011;8710;49.880;8.272;2022-08-27T10:46:43;5.90;;;4.88;;
17189;SDS011;8710;49.880;8.272;2022-08-27T10:49:14;10.40;;;5.82;;
17189;SDS011;8710;49.880;8.272;2022-08-27T10:51:44;8.93;;;5.63;;
17189;SDS011;8710;49.880;8.272;2022-08-27T10:54:19;7.47;;;5.30;;
17189;SDS011;8710;49.880;8.272;2022-08-27T10:56:49;7.53;;;5.68;;
17189;SDS011;8710;49.880;8.272;2022-08-27T10:59:22;6.38;;;5.38;;
17189;SDS011;8710;49.880;8.272;2022-08-27T11:01:55;6.57;;;5.78;;
17189;SDS011;8710;49.880;8.272;2022-08-27T11:04:30;6.47;;;5.22;;
17189;SDS011;8710;49.880;8.272;2022-08-27T11:07:03;6.57;;;5.65;;
17189;SDS011;8710;49.880;8.272;2022-08-27T11:09:36;6.90;;;6.20;;
17189;SDS011;8710;49.880;8.272;2022-08-27T11:12:05;6.65;;;5.88;;
17189;SDS011;8710;49.880;8.272;2022-08-27T11:14:34;7.35;;;6.03;;
17189;SDS011;8710;49.880;8.272;2022-08-27T11:17:06;7.72;;;6.10;;
17189;SDS011;8710;49.880;8.272;2022-08-27T11:19:37;9.23;;;6.70;;
17189;SDS011;8710;49.880;8.272;2022-08-27T11:22:12;7.78;;;5.68;;
17189;SDS011;8710;49.880;8.272;2022-08-27T11:24:43;8.05;;;6.10;;
17189;SDS011;8710;49.880;8.272;2022-08-27T11:27:15;11.05;;;6.20;;
17189;SDS011;8710;49.880;8.272;2022-08-27T11:29:48;6.03;;;5.20;;
17189;SDS011;8710;49.880;8.272;2022-08-27T11:32:24;7.45;;;5.43;;
17189;SDS011;8710;49.880;8.272;2022-08-27T11:34:53;7.78;;;5.70;;
17189;SDS011;8710;49.880;8.272;2022-08-27T11:37:28;7.78;;;5.60;;
17189;SDS011;8710;49.880;8.272;2022-08-27T11:40:09;9.15;;;5.82;;
17189;SDS011;8710;49.880;8.272;2022-08-27T11:42:43;5.70;;;5.15;;
17189;SDS011;8710;49.880;8.272;2022-08-27T11:45:15;6.50;;;5.40;;
17189;SDS011;8710;49.880;8.272;2022-08-27T11:47:50;8.00;;;5.15;;
17189;SDS011;8710;49.880;8.272;2022-08-27T11:50:19;7.22;;;5.25;;
17189;SDS011;8710;49.880;8.272;2022-08-27T11:52:54;8.77;;;5.13;;
17189;SDS011;8710;49.880;8.272;2022-08-27T11:55:23;7.05;;;5.65;;
17189;SDS011;8710;49.880;8.272;2022-08-27T11:58:01;5.15;;;4.65;;
17189;SDS011;8710;49.880;8.272;2022-08-27T12:00:32;7.78;;;4.75;;
17189;SDS011;8710;49.880;8.272;2022-08-27T12:03:01;5.55;;;5.05;;
17189;SDS011;8710;49.880;8.272;2022-08-27T12:05:35;5.55;;;4.82;;
17189;SDS011;8710;49.880;8.272;2022-08-27T12:08:15;5.32;;;4.45;;
17189;SDS011;8710;49.880;8.272;2022-08-27T12:10:55;5.68;;;4.15;;
17189;SDS011;8710;49.880;8.272;2022-08-27T12:13:27;5.63;;;5.03;;
17189;SDS011;8710;49.880;8.272;2022-08-27T12:16:01;4.70;;;4.30;;
17189;SDS011;8710;49.880;8.272;2022-08-27T12:18:42;5.72;;;4.50;;
17189;SDS011;8710;49.880;8.272;2022-08-27T12:21:13;7.72;;;4.45;;
17189;SDS011;8710;49.880;8.272;2022-08-27T12:23:43;5.75;;;4.05;;
17189;SDS011;8710;49.880;8.272;2022-08-27T12:26:26;5.05;;;4.55;;
17189;SDS011;8710;49.880;8.272;2022-08-27T12:31:59;5.15;;;3.88;;
17189;SDS011;8710;49.880;8.272;2022-08-27T12:34:41;4.97;;;4.45;;
17189;SDS011;8710;49.880;8.272;2022-08-27T12:37:10;5.88;;;4.57;;
17189;SDS011;8710;49.880;8.272;2022-08-27T12:39:39;5.25;;;4.68;;
17189;SDS011;8710;49.880;8.272;2022-08-27T12:42:11;5.13;;;4.65;;
17189;SDS011;8710;49.880;8.272;2022-08-27T12:44:38;5.70;;;5.07;;
17189;SDS011;8710;49.880;8.272;2022-08-27T12:47:06;6.57;;;4.40;;
17189;SDS011;8710;49.880;8.272;2022-08-27T12:49:38;5.22;;;4.75;;
17189;SDS011;8710;49.880;8.272;2022-08-27T12:52:16;5.65;;;5.00;;
17189;SDS011;8710;49.880;8.272;2022-08-27T12:54:51;4.85;;;4.30;;
17189;SDS011;8710;49.880;8.272;2022-08-27T12:57:20;5.22;;;4.43;;
17189;SDS011;8710;49.880;8.272;2022-08-27T13:00:00;4.65;;;4.20;;
17189;SDS011;8710;49.880;8.272;2022-08-27T13:02:45;5.78;;;4.47;;
17189;SDS011;8710;49.880;8.272;2022-08-27T13:05:35;5.85;;;4.38;;
17189;SDS011;8710;49.880;8.272;2022-08-27T13:08:05;6.15;;;4.72;;
17189;SDS011;8710;49.880;8.272;2022-08-27T13:10:32;6.88;;;5.15;;
17189;SDS011;8710;49.880;8.272;2022-08-27T13:13:01;4.80;;;4.40;;
17189;SDS011;8710;49.880;8.272;2022-08-27T13:15:28;5.28;;;4.78;;
17189;SDS011;8710;49.880;8.272;2022-08-27T13:17:58;4.90;;;4.40;;
17189;SDS011;8710;49.880;8.272;2022-08-27T13:20:25;6.03;;;4.88;;
17189;SDS011;8710;49.880;8.272;2022-08-27T13:22:52;5.32;;;4.70;;
17189;SDS011;8710;49.880;8.272;2022-08-27T13:25:23;5.72;;;5.10;;
17189;SDS011;8710;49.880;8.272;2022-08-27T13:27:52;5.30;;;4.80;;
17189;SDS011;8710;49.880;8.272;2022-08-27T13:30:20;5.00;;;4.57;;
17189;SDS011;8710;49.880;8.272;2022-08-27T13:32:48;5.10;;;4.60;;
17189;SDS011;8710;49.880;8.272;2022-08-27T13:35:16;6.63;;;5.53;;
17189;SDS011;8710;49.880;8.272;2022-08-27T13:37:46;5.07;;;4.63;;
17189;SDS011;8710;49.880;8.272;2022-08-27T13:40:27;5.57;;;4.72;;
17189;SDS011;8710;49.880;8.272;2022-08-27T13:42:55;5.45;;;4.95;;
17189;SDS011;8710;49.880;8.272;2022-08-27T13:45:27;6.03;;;5.30;;
17189;SDS011;8710;49.880;8.272;2022-08-27T13:47:54;5.78;;;5.28;;
17189;SDS011;8710;49.880;8.272;2022-08-27T13:50:23;6.85;;;5.03;;
17189;SDS011;8710;49.880;8.272;2022-08-27T13:52:51;8.73;;;5.00;;
17189;SDS011;8710;49.880;8.272;2022-08-27T13:55:45;6.13;;;5.53;;
17189;SDS011;8710;49.880;8.272;2022-08-27T13:58:17;6.53;;;5.35;;
17189;SDS011;8710;49.880;8.272;2022-08-27T14:00:46;7.10;;;5.30;;
17189;SDS011;8710;49.880;8.272;2022-08-27T14:03:23;6.43;;;5.13;;
17189;SDS011;8710;49.880;8.272;2022-08-27T14:05:54;6.88;;;5.00;;
17189;SDS011;8710;49.880;8.272;2022-08-27T14:08:21;5.72;;;5.13;;
17189;SDS011;8710;49.880;8.272;2022-08-27T14:10:58;7.88;;;5.65;;
17189;SDS011;8710;49.880;8.272;2022-08-27T14:13:27;6.15;;;5.55;;
17189;SDS011;8710;49.880;8.272;2022-08-27T14:16:10;5.80;;;5.30;;
17189;SDS011;8710;49.880;8.272;2022-08-27T14:18:49;7.28;;;5.45;;
17189;SDS011;8710;49.880;8.272;2022-08-27T14:21:18;6.97;;;5.63;;
17189;SDS011;8710;49.880;8.272;2022-08-27T14:23:45;8.68;;;5.55;;
17189;SDS011;8710;49.880;8.272;2022-08-27T14:26:13;6.68;;;5.78;;
17189;SDS011;8710;49.880;8.272;2022-08-27T14:28:41;8.23;;;5.93;;
17189;SDS011;8710;49.880;8.272;2022-08-27T14:31:08;8.85;;;6.03;;
17189;SDS011;8710;49.880;8.272;2022-08-27T14:33:36;6.30;;;5.70;;
17189;SDS011;8710;49.880;8.272;2022-08-27T14:36:03;7.57;;;6.78;;
17189;SDS011;8710;49.880;8.272;2022-08-27T14:38:31;8.15;;;7.32;;
17189;SDS011;8710;49.880;8.272;2022-08-27T14:41:03;7.60;;;6.90;;
17189;SDS011;8710;49.880;8.272;2022-08-27T14:43:31;12.80;;;7.28;;
17189;SDS011;8710;49.880;8.272;2022-08-27T14:45:59;7.43;;;6.72;;
17189;SDS011;8710;49.880;8.272;2022-08-27T14:48:27;10.27;;;7.28;;
17189;SDS011;8710;49.880;8.272;2022-08-27T14:50:57;10.13;;;6.80;;
17189;SDS011;8710;49.880;8.272;2022-08-27T14:53:26;10.02;;;6.63;;
17189;SDS011;8710;49.880;8.272;2022-08-27T14:55:53;9.07;;;6.57;;
17189;SDS011;8710;49.880;8.272;2022-08-27T14:58:22;6.85;;;5.97;;
17189;SDS011;8710;49.880;8.272;2022-08-27T15:00:51;6.80;;;6.10;;
17189;SDS011;8710;49.880;8.272;2022-08-27T15:03:20;6.38;;;5.78;;
17189;SDS011;8710;49.880;8.272;2022-08-27T15:05:49;8.55;;;5.68;;
17189;SDS011;8710;49.880;8.272;2022-08-27T15:08:16;6.07;;;5.45;;
17189;SDS011;8710;49.880;8.272;2022-08-27T15:10:43;7.03;;;5.55;;
17189;SDS011;8710;49.880;8.272;2022-08-27T15:13:10;6.32;;;5.60;;